createdAt,value
2023-02-09T00:00:27.408Z,4.35
2023-02-09T00:05:23.700Z,4.28
2023-02-09T00:10:20.134Z,3.92
2023-02-09T00:15:16.435Z,3.65
2023-02-09T00:20:12.814Z,3.35
2023-02-09T00:25:09.156Z,4.50
2023-02-09T00:30:06.046Z,4.35
2023-02-09T00:35:02.556Z,4.13
2023-02-09T00:39:58.861Z,3.83
2023-02-09T00:44:55.181Z,4.95
2023-02-09T00:49:51.473Z,3.85
2023-02-09T00:54:47.781Z,5.30
2023-02-09T00:59:44.156Z,4.53
2023-02-09T01:04:40.582Z,4.05
2023-02-09T01:09:36.943Z,3.72
2023-02-09T01:14:33.368Z,4.18
2023-02-09T01:19:29.785Z,5.22
2023-02-09T01:24:26.534Z,4.68
2023-02-09T01:29:22.965Z,4.45
2023-02-09T01:34:19.431Z,4.88
2023-02-09T01:39:15.836Z,3.95
2023-02-09T01:44:12.161Z,3.65
2023-02-09T01:49:16.354Z,3.90
2023-02-09T01:54:17.003Z,4.90
2023-02-09T01:59:15.403Z,4.65
2023-02-09T02:04:12.735Z,5.18
2023-02-09T02:09:12.618Z,4.90
2023-02-09T02:14:28.825Z,4.22
2023-02-09T02:20:01.305Z,4.82
2023-02-09T02:25:26.783Z,4.45
2023-02-09T02:30:29.606Z,4.85
2023-02-09T02:35:35.684Z,4.80
2023-02-09T02:40:46.319Z,5.60
2023-02-09T02:46:26.795Z,4.78
2023-02-09T02:51:30.505Z,5.20
2023-02-09T02:56:49.709Z,5.20
2023-02-09T03:01:55.786Z,5.28
2023-02-09T03:06:52.397Z,4.72
2023-02-09T03:11:54.523Z,4.70
2023-02-09T03:17:06.610Z,5.93
2023-02-09T03:22:33.250Z,5.70
2023-02-09T03:27:37.602Z,5.07
2023-02-09T03:32:38.618Z,5.18
2023-02-09T03:37:34.964Z,4.57
2023-02-09T03:42:31.339Z,5.50
2023-02-09T03:47:27.713Z,5.20
2023-02-09T03:52:24.111Z,5.53
2023-02-09T03:57:20.494Z,5.35
2023-02-09T04:02:16.975Z,5.85
2023-02-09T04:07:13.901Z,5.75
2023-02-09T04:12:10.448Z,4.80
2023-02-09T04:17:06.843Z,5.53
2023-02-09T04:22:03.253Z,4.88
2023-02-09T04:27:00.038Z,6.10
2023-02-09T04:31:56.615Z,5.68
2023-02-09T04:36:53.643Z,6.03
2023-02-09T04:41:50.002Z,5.45
2023-02-09T04:46:46.382Z,4.93
2023-02-09T04:51:42.789Z,5.18
2023-02-09T04:56:39.158Z,6.20
2023-02-09T05:01:35.615Z,5.07
2023-02-09T05:06:32.052Z,6.07
2023-02-09T05:11:28.440Z,5.45
2023-02-09T05:16:24.949Z,6.18
2023-02-09T05:21:21.379Z,5.63
2023-02-09T05:26:17.884Z,5.20
2023-02-09T05:31:14.871Z,6.45
2023-02-09T05:36:12.819Z,6.88
2023-02-09T05:41:32.037Z,6.05
2023-02-09T05:46:28.614Z,6.22
2023-02-09T05:51:24.995Z,6.38
2023-02-09T05:56:22.573Z,7.15
2023-02-09T06:01:19.258Z,5.65
2023-02-09T06:06:15.641Z,5.43
2023-02-09T06:11:12.020Z,6.45
2023-02-09T06:16:08.498Z,6.00
2023-02-09T06:21:06.273Z,6.55
2023-02-09T06:26:14.021Z,6.55
2023-02-09T06:31:11.929Z,5.55
2023-02-09T06:36:09.093Z,6.47
2023-02-09T06:41:05.774Z,6.47
2023-02-09T06:46:07.054Z,6.65
2023-02-09T06:51:08.047Z,7.10
2023-02-09T06:56:05.786Z,6.80
2023-02-09T07:01:10.122Z,7.15
2023-02-09T07:06:15.729Z,6.97
2023-02-09T07:11:15.353Z,6.55
2023-02-09T07:16:12.651Z,7.03
2023-02-09T07:21:15.473Z,6.85
2023-02-09T07:26:15.408Z,7.07
2023-02-09T07:31:14.383Z,7.47
2023-02-09T07:41:14.109Z,7.25
2023-02-09T07:46:13.695Z,7.40
2023-02-09T07:51:19.853Z,7.90
2023-02-09T07:56:16.779Z,7.78
2023-02-09T08:01:13.411Z,8.52
2023-02-09T08:06:40.979Z,8.80
2023-02-09T08:11:44.694Z,9.23
2023-02-09T08:16:42.248Z,8.27
2023-02-09T08:21:41.607Z,8.73
2023-02-09T08:26:38.736Z,7.65
2023-02-09T08:31:35.185Z,8.82
2023-02-09T08:36:31.985Z,7.97
2023-02-09T08:41:28.334Z,8.05
2023-02-09T08:46:25.092Z,7.65
2023-02-09T08:51:21.773Z,7.85
2023-02-09T08:56:19.642Z,7.75
2023-02-09T09:01:16.145Z,7.22
2023-02-09T09:06:12.619Z,7.13
2023-02-09T09:11:12.935Z,6.97
2023-02-09T09:16:18.336Z,8.43
2023-02-09T09:21:17.390Z,7.43
2023-02-09T09:31:16.782Z,7.85
2023-02-09T09:36:14.640Z,7.88
2023-02-09T09:41:24.449Z,7.85
2023-02-09T09:46:28.266Z,8.25
2023-02-09T09:51:44.458Z,7.72
2023-02-09T09:56:41.645Z,8.02
2023-02-09T10:01:38.037Z,7.43
2023-02-09T10:06:34.557Z,8.38
2023-02-09T10:11:41.556Z,7.40
2023-02-09T10:16:38.326Z,8.07
2023-02-09T10:21:36.234Z,7.80
2023-02-09T10:26:34.574Z,8.23
2023-02-09T10:31:50.516Z,8.57
2023-02-09T10:36:52.565Z,7.20
2023-02-09T10:41:52.478Z,7.72
2023-02-09T10:46:49.288Z,9.32
2023-02-09T10:51:45.852Z,7.78
2023-02-09T10:56:45.294Z,8.38
2023-02-09T11:01:43.899Z,9.35
2023-02-09T11:06:52.626Z,8.07
2023-02-09T11:11:49.078Z,9.55
2023-02-09T11:17:10.571Z,7.90
2023-02-09T11:22:37.647Z,7.57
2023-02-09T11:27:50.834Z,9.02
2023-02-09T11:33:03.019Z,9.25
2023-02-09T11:38:05.594Z,9.02
2023-02-09T11:43:13.495Z,9.23
2023-02-09T11:48:29.114Z,9.77
2023-02-09T11:53:28.511Z,9.48
2023-02-09T11:58:33.957Z,8.60
2023-02-09T12:03:30.656Z,9.23
2023-02-09T12:08:44.304Z,7.65
2023-02-09T12:14:18.218Z,8.02
2023-02-09T12:19:40.861Z,9.60
2023-02-09T12:24:40.832Z,8.05
2023-02-09T12:29:40.097Z,8.23
2023-02-09T12:34:49.525Z,7.55
2023-02-09T12:40:04.995Z,7.30
2023-02-09T12:45:01.564Z,7.18
2023-02-09T12:50:05.082Z,7.22
2023-02-09T12:55:17.604Z,6.97
2023-02-09T13:00:13.973Z,7.32
2023-02-09T13:05:18.348Z,7.18
2023-02-09T13:10:27.603Z,7.78
2023-02-09T13:15:27.752Z,7.75
2023-02-09T13:20:54.845Z,9.02
2023-02-09T13:26:00.437Z,8.90
2023-02-09T13:30:56.884Z,9.25
2023-02-09T13:36:23.797Z,7.85
2023-02-09T13:41:33.410Z,7.30
2023-02-09T13:51:30.780Z,7.38
2023-02-09T13:56:28.342Z,7.53
2023-02-09T14:01:29.791Z,7.03
2023-02-09T14:06:32.072Z,7.32
2023-02-09T14:11:42.610Z,8.25
2023-02-09T14:16:52.659Z,6.82
2023-02-09T14:21:50.165Z,6.78
2023-02-09T14:27:07.878Z,7.22
2023-02-09T14:32:33.578Z,6.57
2023-02-09T14:37:30.681Z,7.45
2023-02-09T14:42:32.810Z,6.82
2023-02-09T14:47:41.256Z,7.30
2023-02-09T14:52:39.888Z,7.30
2023-02-09T14:57:38.556Z,6.97
2023-02-09T15:02:35.060Z,6.75
2023-02-09T15:07:35.445Z,7.43
2023-02-09T15:12:32.086Z,6.65
2023-02-09T15:17:30.473Z,7.57
2023-02-09T15:22:26.942Z,4.80
2023-02-09T15:27:34.799Z,7.63
2023-02-09T15:32:31.121Z,4.78
2023-02-09T15:37:32.738Z,7.32
2023-02-09T15:42:47.707Z,6.65
2023-02-09T15:47:50.387Z,6.93
2023-02-09T15:52:46.890Z,6.90
2023-02-09T15:57:43.295Z,7.53
2023-02-09T16:02:39.653Z,7.75
2023-02-09T16:07:37.293Z,13.55
2023-02-09T16:12:34.113Z,7.85
2023-02-09T16:17:30.431Z,8.10
2023-02-09T16:22:26.899Z,7.40
2023-02-09T16:27:26.165Z,7.97
2023-02-09T16:32:24.462Z,8.23
2023-02-09T16:37:31.397Z,7.20
2023-02-09T16:42:29.290Z,10.45
2023-02-09T16:47:27.388Z,8.27
2023-02-09T16:52:26.904Z,5.77
2023-02-09T16:57:25.033Z,8.40
2023-02-09T17:02:39.872Z,8.50
2023-02-09T17:07:48.667Z,8.57
2023-02-09T17:12:48.724Z,9.57
2023-02-09T17:17:52.898Z,7.53
2023-02-09T17:22:51.974Z,7.80
2023-02-09T17:27:48.317Z,8.10
2023-02-09T17:32:48.427Z,8.32
2023-02-09T17:37:45.491Z,8.73
2023-02-09T17:42:42.449Z,9.38
2023-02-09T17:47:40.373Z,11.77
2023-02-09T17:52:36.671Z,10.00
2023-02-09T17:57:33.012Z,8.20
2023-02-09T18:02:29.367Z,9.82
2023-02-09T18:07:25.676Z,9.20
2023-02-09T18:12:25.140Z,11.90
2023-02-09T18:17:21.445Z,13.35
2023-02-09T18:22:19.761Z,11.90
2023-02-09T18:27:24.378Z,31.55
2023-02-09T18:32:21.221Z,12.73
2023-02-09T18:37:17.611Z,10.70
2023-02-09T18:42:15.205Z,10.13
2023-02-09T18:47:11.790Z,9.10
2023-02-09T18:52:08.762Z,9.75
2023-02-09T18:57:05.123Z,9.93
2023-02-09T19:02:02.559Z,9.73
2023-02-09T19:06:58.900Z,8.57
2023-02-09T19:11:55.268Z,10.95
2023-02-09T19:16:51.608Z,9.52
2023-02-09T19:21:51.883Z,8.90
2023-02-09T19:26:48.366Z,10.60
2023-02-09T19:31:46.269Z,10.05
2023-02-09T19:36:43.319Z,11.02
2023-02-09T19:41:39.656Z,11.05
2023-02-09T19:46:36.088Z,11.13
2023-02-09T19:51:32.855Z,11.63
2023-02-09T19:56:29.494Z,10.02
2023-02-09T20:01:26.902Z,9.73
2023-02-09T20:06:23.953Z,9.50
2023-02-09T20:11:20.972Z,9.18
2023-02-09T20:16:20.329Z,7.97
2023-02-09T20:21:18.328Z,8.95
2023-02-09T20:26:18.831Z,7.97
2023-02-09T20:31:24.400Z,9.35
2023-02-09T20:36:23.773Z,9.43
2023-02-09T20:41:21.079Z,10.80
2023-02-09T20:46:40.016Z,9.13
2023-02-09T20:56:33.090Z,9.38
2023-02-09T21:01:29.418Z,10.80
2023-02-09T21:06:26.520Z,10.90
2023-02-09T21:11:22.910Z,10.60
2023-02-09T21:16:20.371Z,9.98
2023-02-09T21:21:17.985Z,10.80
2023-02-09T21:26:16.858Z,10.02
2023-02-09T21:31:16.503Z,11.18
2023-02-09T21:36:13.140Z,10.82
2023-02-09T21:41:35.101Z,9.93
2023-02-09T21:46:32.288Z,10.27
2023-02-09T21:51:28.763Z,10.15
2023-02-09T21:56:26.019Z,10.50
2023-02-09T22:01:22.441Z,10.38
2023-02-09T22:06:18.794Z,9.30
2023-02-09T22:11:15.088Z,11.85
2023-02-09T22:16:17.943Z,11.38
2023-02-09T22:21:14.352Z,12.88
2023-02-09T22:26:13.687Z,11.70
2023-02-09T22:31:13.509Z,12.32
2023-02-09T22:36:15.498Z,11.68
2023-02-09T22:41:23.165Z,11.48
2023-02-09T22:46:23.549Z,11.13
2023-02-09T22:51:20.960Z,11.23
2023-02-09T22:56:17.390Z,11.40
2023-02-09T23:01:14.579Z,11.52
2023-02-09T23:06:14.489Z,13.30
2023-02-09T23:11:17.430Z,12.00
2023-02-09T23:16:23.600Z,11.95
2023-02-09T23:21:22.614Z,11.95
2023-02-09T23:26:20.375Z,13.05
2023-02-09T23:31:18.643Z,13.70
2023-02-09T23:36:18.229Z,14.13
2023-02-09T23:41:16.817Z,14.30
2023-02-09T23:46:16.079Z,14.15
2023-02-09T23:51:14.603Z,15.18
2023-02-09T23:56:13.148Z,12.55
